Time;durP1;ratioP1;P1;durP2;ratioP2;P2;SDS_P1;SDS_P2;PMS_P1;PMS_P2;Temp;Humidity;BMP_temperature;BMP_pressure;BME280_temperature;BME280_humidity;BME280_pressure;Samples;Min_cycle;Max_cycle;Signal;HPM_P1;HPM_P2
2022/08/12 00:44:57;;;;;;;7.30;3.47;;;;;;;21.17;49.62;101861.75;5100815;28;20434;-74
2022/08/12 00:47:23;;;;;;;4.00;3.57;;;;;;;21.18;49.24;101855.56;5105164;28;20509;-72
2022/08/12 00:49:49;;;;;;;5.33;3.80;;;;;;;21.49;49.28;101849.72;5101843;28;20398;-73
2022/08/12 00:52:15;;;;;;;6.30;3.70;;;;;;;21.30;48.72;101853.63;5101585;28;20161;-73
2022/08/12 00:54:44;;;;;;;4.73;4.00;;;;;;;21.04;49.95;101857.59;5101320;28;20256;-73
2022/08/12 00:57:16;;;;;;;4.63;3.60;;;;;;;21.12;49.84;101855.69;5101384;28;20406;-73
2022/08/12 00:59:52;;;;;;;5.13;3.67;;;;;;;21.24;49.28;101861.66;5102961;28;20414;-73
2022/08/12 01:02:47;;;;;;;4.90;4.10;;;;;;;21.00;50.27;101855.88;5103634;28;20483;-73
2022/08/12 01:13:30;;;;;;;7.63;4.10;;;;;;;21.41;49.08;101854.28;5100203;28;20421;-74
2022/08/12 01:15:57;;;;;;;7.20;4.00;;;;;;;21.23;49.56;101859.91;5100045;28;20650;-73
2022/08/12 01:18:28;;;;;;;6.47;3.80;;;;;;;21.63;48.86;101852.13;5100620;28;20711;-73
2022/08/12 01:21:15;;;;;;;4.70;4.10;;;;;;;;;;5100514;28;20456;-74
2022/08/12 01:24:03;;;;;;;4.90;3.97;;;;;;;21.28;49.56;101850.97;5100664;28;20493;-73
2022/08/12 01:26:30;;;;;;;4.40;3.60;;;;;;;21.12;49.75;101849.47;5100712;28;20399;-73
2022/08/12 01:28:57;;;;;;;5.97;4.27;;;;;;;21.39;48.74;101848.13;5100656;28;20654;-73
2022/08/12 01:31:24;;;;;;;6.23;4.07;;;;;;;20.94;50.11;101851.53;5100440;28;20392;-73
2022/08/12 01:34:02;;;;;;;6.00;4.40;;;;;;;20.83;50.25;101843.75;5100173;28;20804;-72
2022/08/12 01:36:30;;;;;;;5.93;4.60;;;;;;;21.16;49.69;101849.44;5100362;28;20384;-74
2022/08/12 01:38:58;;;;;;;6.30;4.03;;;;;;;21.01;49.92;101853.22;5100230;28;20489;-74
2022/08/12 01:41:28;;;;;;;5.47;4.17;;;;;;;20.82;50.26;101846.44;5100055;28;20417;-73
2022/08/12 01:43:54;;;;;;;4.50;4.10;;;;;;;20.83;50.20;101848.19;5100046;28;20487;-73
2022/08/12 01:46:32;;;;;;;5.50;4.00;;;;;;;21.01;49.18;101849.66;5099570;28;20384;-73
2022/08/12 01:49:18;;;;;;;5.00;3.80;;;;;;;20.60;50.08;101851.16;5100285;28;20410;-74
2022/08/12 01:51:45;;;;;;;4.70;4.17;;;;;;;20.96;49.60;101844.44;5098529;28;20422;-74
2022/08/12 01:54:16;;;;;;;6.23;4.07;;;;;;;20.98;49.28;101841.75;5098885;28;20469;-72
2022/08/12 01:56:50;;;;;;;6.30;4.63;;;;;;;20.88;49.33;101829.56;5099928;28;20398;-74
2022/08/12 02:00:11;;;;;;;6.23;4.20;;;;;;;20.90;49.47;101838.38;5099613;28;20869;-73
2022/08/12 02:02:10;;;;;;;5.03;3.70;;;;;;;21.31;48.13;101835.03;5092399;28;20431;-73
2022/08/12 02:13:58;;;;;;;4.60;4.07;;;;;;;20.88;49.46;101840.16;5099167;28;20460;-73
2022/08/12 02:17:04;;;;;;;8.03;4.30;;;;;;;20.64;50.14;101837.81;5099644;28;20401;-73
2022/08/12 02:19:45;;;;;;;5.30;4.80;;;;;;;20.92;49.19;101837.44;5099639;28;20956;-73
2022/08/12 02:22:27;;;;;;;5.80;4.30;;;;;;;20.01;51.40;101839.56;5099510;28;20384;-72
2022/08/12 02:24:58;;;;;;;5.00;3.90;;;;;;;20.80;50.05;101835.00;5099304;28;20436;-73
2022/08/12 02:27:26;;;;;;;4.43;4.00;;;;;;;20.71;50.06;101845.72;5098509;28;20495;-73
2022/08/12 02:29:52;;;;;;;4.47;4.00;;;;;;;20.57;50.65;101843.25;5098467;28;20377;-72
2022/08/12 02:32:17;;;;;;;4.43;4.03;;;;;;;20.74;50.78;101838.59;5099554;28;20402;-70
2022/08/12 02:34:43;;;;;;;4.57;3.83;;;;;;;20.50;50.78;101834.53;5099047;28;20172;-71
2022/08/12 02:37:12;;;;;;;5.60;4.10;;;;;;;20.37;51.31;101833.81;5099095;28;20176;-69
2022/08/12 02:39:39;;;;;;;4.70;3.87;;;;;;;20.24;51.11;101833.13;5099048;28;20192;-68
2022/08/12 02:42:08;;;;;;;5.13;4.20;;;;;;;20.78;50.39;101834.13;5098375;28;20422;-68
2022/08/12 02:44:37;;;;;;;5.27;4.40;;;;;;;20.60;50.56;101829.97;5098309;28;20811;-67
2022/08/12 02:47:05;;;;;;;5.17;3.63;;;;;;;20.29;51.50;101833.03;5098640;28;20520;-67
2022/08/12 02:49:43;;;;;;;5.60;4.03;;;;;;;20.67;50.57;101832.50;5098957;28;20416;-68
2022/08/12 02:52:09;;;;;;;4.87;4.10;;;;;;;20.58;50.65;101834.38;5098092;28;20463;-68
2022/08/12 02:54:36;;;;;;;4.53;4.10;;;;;;;20.58;50.59;101826.44;5097720;28;20469;-66
2022/08/12 02:57:02;;;;;;;6.67;4.13;;;;;;;20.06;51.56;101834.19;5098011;28;20414;-68
2022/08/12 02:59:28;;;;;;;5.20;4.40;;;;;;;20.46;50.91;101827.53;5099081;28;20650;-67
2022/08/12 03:01:56;;;;;;;4.90;3.63;;;;;;;20.33;51.20;101818.84;5098434;28;20183;-66
2022/08/12 03:04:44;;;;;;;6.40;4.43;;;;;;;20.15;51.45;101822.63;5097856;28;20397;-67
2022/08/12 03:07:19;;;;;;;9.83;4.47;;;;;;;20.30;51.73;101822.41;5098845;28;20414;-68
2022/08/12 03:09:50;;;;;;;4.70;4.30;;;;;;;19.76;52.76;101831.00;5098680;28;20392;-68
2022/08/12 03:12:16;;;;;;;5.30;4.17;;;;;;;19.95;52.61;101814.94;5098592;28;20381;-68
2022/08/12 03:14:42;;;;;;;4.27;3.87;;;;;;;20.18;52.55;101814.66;5098331;28;20698;-67
2022/08/12 03:17:13;;;;;;;6.63;4.57;;;;;;;20.30;51.56;101813.59;5099000;28;20385;-67
2022/08/12 03:19:38;;;;;;;4.90;4.27;;;;;;;19.92;52.75;101815.00;5097641;28;20222;-68
2022/08/12 03:22:11;;;;;;;5.70;3.90;;;;;;;20.01;52.90;101812.19;5098360;28;20385;-67
2022/08/12 03:24:38;;;;;;;7.00;4.60;;;;;;;19.96;52.75;101814.91;5098145;28;20191;-67
2022/08/12 03:27:06;;;;;;;4.30;3.90;;;;;;;20.10;53.19;101808.56;5097570;28;20446;-66
2022/08/12 03:29:35;;;;;;;5.60;4.70;;;;;;;20.08;52.76;101805.94;5098137;28;20716;-67
2022/08/12 03:32:02;;;;;;;4.90;4.20;;;;;;;20.39;51.90;101818.78;5098365;28;20422;-68
2022/08/12 03:34:29;;;;;;;9.90;7.23;;;;;;;19.61;54.00;101817.94;5098194;28;20430;-67
2022/08/12 03:36:57;;;;;;;5.33;4.63;;;;;;;19.65;54.11;101812.59;5097851;28;20392;-68
2022/08/12 03:39:44;;;;;;;5.13;4.63;;;;;;;19.48;54.64;101809.25;5098144;28;20458;-67
2022/08/12 03:42:24;;;;;;;5.27;4.40;;;;;;;19.87;53.64;101801.78;5097209;28;20401;-67
2022/08/12 04:01:57;;;;;;;5.47;4.67;;;;;;;19.93;53.65;101801.72;5098263;28;20440;-67
2022/08/12 04:04:31;;;;;;;6.07;4.63;;;;;;;20.19;52.71;101801.38;5097753;28;20422;-68
2022/08/12 04:06:57;;;;;;;7.07;4.93;;;;;;;20.45;52.36;101799.28;5098006;28;20392;-68
2022/08/12 04:09:23;;;;;;;7.50;4.10;;;;;;;20.03;53.36;101798.06;5097070;28;20397;-68
2022/08/12 04:14:33;;;;;;;5.17;4.70;;;;;;;19.83;53.71;101800.94;5098451;28;20591;-68
2022/08/12 04:17:00;;;;;;;6.27;4.53;;;;;;;20.06;53.10;101801.56;5102054;28;20600;-66
2022/08/12 04:19:26;;;;;;;4.60;4.20;;;;;;;19.67;54.48;101807.28;5101855;28;20534;-67
2022/08/12 04:21:54;;;;;;;10.83;4.47;;;;;;;20.32;52.99;101794.16;5102178;28;20766;-68
2022/08/12 04:24:20;;;;;;;8.97;4.30;;;;;;;20.12;52.88;101798.81;5101536;28;20199;-68
2022/08/12 04:26:45;;;;;;;5.40;4.70;;;;;;;20.43;52.42;101801.06;5101757;28;20468;-67
2022/08/12 04:29:11;;;;;;;9.30;4.97;;;;;;;19.75;54.32;101797.47;5101945;28;20819;-67
2022/08/12 04:31:39;;;;;;;5.23;4.70;;;;;;;19.89;54.29;101807.06;5101595;28;20216;-67
2022/08/12 04:34:06;;;;;;;7.77;4.40;;;;;;;19.88;54.26;101802.66;5101416;28;20406;-68
2022/08/12 04:36:33;;;;;;;11.77;4.93;;;;;;;20.90;51.64;101804.78;5101929;28;20482;-67
2022/08/12 04:38:59;;;;;;;4.90;4.30;;;;;;;22.46;48.20;101791.16;5101320;28;20839;-66
2022/08/12 04:41:26;;;;;;;4.87;4.30;;;;;;;22.82;46.26;101795.63;5101348;28;20397;-66
2022/08/12 04:43:52;;;;;;;7.13;4.40;;;;;;;23.60;44.49;101795.38;5100746;28;20426;-67
2022/08/12 04:46:18;;;;;;;6.30;4.53;;;;;;;23.33;45.40;101797.00;5101302;28;20389;-68
2022/08/12 04:48:43;;;;;;;7.10;4.70;;;;;;;22.25;47.51;101799.59;5101193;28;20399;-67
2022/08/12 04:51:09;;;;;;;6.13;4.20;;;;;;;23.18;45.61;101800.94;5101680;28;20168;-67
2022/08/12 04:53:34;;;;;;;5.63;4.10;;;;;;;23.95;44.15;101792.63;5100059;28;20227;-67
2022/08/12 04:55:59;;;;;;;4.87;4.37;;;;;;;23.83;43.90;101786.72;5101045;28;20247;-67
2022/08/12 04:58:26;;;;;;;9.17;4.40;;;;;;;22.94;46.45;101797.09;5101652;28;20192;-67
2022/08/12 05:00:51;;;;;;;6.10;4.20;;;;;;;23.37;45.57;101788.88;5101089;28;20475;-68
2022/08/12 05:03:17;;;;;;;4.97;4.20;;;;;;;23.30;45.38;101789.97;5100801;28;20417;-67
2022/08/12 05:05:42;;;;;;;5.63;4.37;;;;;;;22.53;46.97;101791.88;5101453;28;20430;-67
2022/08/12 05:08:15;;;;;;;9.60;4.50;;;;;;;22.40;48.10;101790.41;5100770;28;20168;-67
2022/08/12 05:10:42;;;;;;;4.90;4.37;;;;;;;23.12;46.33;101793.94;5100823;28;20211;-67
2022/08/12 05:13:10;;;;;;;6.10;4.33;;;;;;;22.59;47.64;101788.19;5101007;28;20406;-66
2022/08/12 05:15:39;;;;;;;4.83;4.27;;;;;;;21.83;49.11;101798.66;5100740;28;20890;-68
2022/08/12 05:18:05;;;;;;;8.33;4.50;;;;;;;21.54;49.91;101801.91;5100758;28;20450;-68
2022/08/12 05:20:30;;;;;;;5.50;4.10;;;;;;;21.64;49.93;101799.97;5100909;28;20738;-68
2022/08/12 05:23:16;;;;;;;5.90;5.03;;;;;;;21.48;50.49;101802.00;5100534;28;20195;-67
2022/08/12 05:25:43;;;;;;;6.23;4.53;;;;;;;21.92;49.52;101802.03;5100658;28;20408;-67
2022/08/12 05:28:09;;;;;;;7.23;4.70;;;;;;;21.90;49.23;101801.22;5100416;28;20397;-66
2022/08/12 05:30:34;;;;;;;4.50;4.10;;;;;;;21.86;49.26;101803.91;5100369;28;20462;-67
2022/08/12 05:33:04;;;;;;;6.50;4.70;;;;;;;22.37;48.80;101797.53;5100815;28;20169;-67
2022/08/12 05:35:40;;;;;;;5.23;4.73;;;;;;;24.98;41.85;101781.38;5100240;28;20175;-67
2022/08/12 05:41:02;;;;;;;7.43;4.40;;;;;;;26.20;39.15;101784.97;5100441;28;20392;-67
2022/08/12 05:43:28;;;;;;;5.90;4.27;;;;;;;25.19;41.21;101792.22;5099295;28;20441;-68
2022/08/12 05:45:53;;;;;;;6.33;4.30;;;;;;;25.91;39.62;101788.72;5100104;28;20466;-67
2022/08/12 05:48:20;;;;;;;5.37;4.20;;;;;;;27.23;37.56;101787.84;5100101;28;20172;-68
2022/08/12 05:50:46;;;;;;;8.43;4.60;;;;;;;27.01;37.78;101785.25;5100262;28;20171;-67
2022/08/12 05:53:12;;;;;;;5.87;4.43;;;;;;;26.76;37.38;101788.09;5099855;28;20687;-67
2022/08/12 05:55:37;;;;;;;7.93;4.50;;;;;;;29.14;33.66;101776.19;5099675;28;20668;-67
2022/08/12 05:58:03;;;;;;;9.27;4.60;;;;;;;30.47;31.77;101780.63;5100497;28;20442;-67
2022/08/12 06:00:30;;;;;;;7.30;4.17;;;;;;;28.05;35.43;101781.53;5099759;28;20214;-68
2022/08/12 06:02:59;;;;;;;7.83;4.40;;;;;;;27.17;37.74;101793.50;5099665;28;20459;-68
2022/08/12 06:05:26;;;;;;;8.07;4.63;;;;;;;26.77;37.63;101795.19;5100341;28;20398;-67
2022/08/12 06:07:55;;;;;;;7.00;4.50;;;;;;;28.42;35.55;101789.59;5099543;28;20463;-67
2022/08/12 06:10:21;;;;;;;5.97;5.10;;;;;;;29.52;33.57;101795.66;5099344;28;20467;-67
2022/08/12 06:12:48;;;;;;;5.90;4.80;;;;;;;28.87;35.04;101796.31;5099140;28;20406;-68
2022/08/12 06:15:19;;;;;;;5.00;4.40;;;;;;;30.01;33.06;101796.63;5099198;28;20172;-67
2022/08/12 06:17:45;;;;;;;5.87;4.33;;;;;;;27.14;37.03;101801.63;5099336;28;20704;-66
2022/08/12 06:20:12;;;;;;;5.63;4.33;;;;;;;28.31;35.56;101798.16;5099652;28;20402;-68
2022/08/12 06:22:47;;;;;;;8.90;4.67;;;;;;;28.52;35.53;101790.91;5099475;28;20164;-68
2022/08/12 06:25:17;;;;;;;4.40;4.00;;;;;;;29.24;33.31;101799.78;5099239;28;20837;-67
2022/08/12 06:27:47;;;;;;;4.90;3.80;;;;;;;30.18;32.22;101801.94;5099225;28;20425;-66
2022/08/12 06:30:19;;;;;;;6.40;4.10;;;;;;;30.85;31.14;101798.13;5099267;28;20425;-68
2022/08/12 06:32:46;;;;;;;6.27;4.40;;;;;;;29.67;32.93;101807.38;5099432;28;20420;-66
2022/08/12 06:35:12;;;;;;;5.50;4.40;;;;;;;30.19;32.37;101800.13;5099060;28;20425;-67
2022/08/12 06:37:58;;;;;;;7.73;4.20;;;;;;;30.18;32.39;101807.31;5099318;28;20410;-67
2022/08/12 06:43:08;;;;;;;8.07;4.50;;;;;;;29.63;32.82;101807.66;5099046;28;20421;-68
2022/08/12 06:45:43;;;;;;;7.70;4.60;;;;;;;31.52;30.16;101805.81;5099170;28;20670;-68
2022/08/12 06:48:10;;;;;;;7.50;4.87;;;;;;;29.51;33.46;101809.19;5098215;28;20192;-69
2022/08/12 06:50:35;;;;;;;5.03;4.53;;;;;;;32.41;29.29;101799.28;5098897;28;20681;-70
2022/08/12 06:53:04;;;;;;;10.80;4.33;;;;;;;29.96;32.67;101818.41;5097640;28;20430;-72
2022/08/12 06:55:30;;;;;;;7.40;4.70;;;;;;;29.59;33.36;101806.09;5098498;28;20228;-72
2022/08/12 06:57:59;;;;;;;10.07;5.03;;;;;;;28.25;35.40;101816.38;5098717;28;20870;-70
2022/08/12 07:00:26;;;;;;;5.10;3.97;;;;;;;30.71;31.53;101810.59;5099180;28;20179;-70
2022/08/12 07:02:56;;;;;;;6.57;4.30;;;;;;;30.96;31.50;101813.66;5098547;28;20682;-69
2022/08/12 07:05:26;;;;;;;6.83;4.10;;;;;;;32.51;29.81;101797.66;5098722;28;20398;-69
2022/08/12 07:07:54;;;;;;;7.13;4.40;;;;;;;32.12;29.53;101799.31;5098763;28;20407;-70
2022/08/12 07:10:22;;;;;;;6.23;4.43;;;;;;;29.79;32.24;101800.47;5098610;28;20406;-69
2022/08/12 07:12:53;;;;;;;6.27;5.00;;;;;;;29.65;33.15;101806.63;5098989;28;20642;-70
2022/08/12 07:15:18;;;;;;;6.83;4.37;;;;;;;30.72;32.01;101800.69;5098500;28;20421;-69
2022/08/12 07:17:44;;;;;;;8.47;4.50;;;;;;;30.52;31.56;101794.66;5098386;28;20414;-70
2022/08/12 07:20:10;;;;;;;4.90;4.37;;;;;;;31.92;29.83;101803.31;5099071;28;20207;-69
2022/08/12 07:22:36;;;;;;;4.90;4.40;;;;;;;32.70;29.10;101791.03;5098514;28;20179;-70
2022/08/12 07:27:46;;;;;;;6.27;4.63;;;;;;;32.52;29.13;101790.47;5098306;28;20187;-71
2022/08/12 07:30:12;;;;;;;5.90;4.73;;;;;;;29.66;32.98;101804.78;5098217;28;20415;-71
2022/08/12 07:32:38;;;;;;;8.03;4.60;;;;;;;29.23;33.47;101810.63;5098346;28;20164;-71
2022/08/12 07:35:03;;;;;;;7.80;4.57;;;;;;;32.12;29.65;101799.31;5098094;28;20425;-70
2022/08/12 07:37:29;;;;;;;6.40;4.30;;;;;;;33.27;28.18;101795.28;5098482;28;20210;-69
2022/08/12 07:39:57;;;;;;;4.60;4.20;;;;;;;33.12;28.12;101797.19;5097940;28;20234;-70
2022/08/12 07:42:22;;;;;;;10.17;4.30;;;;;;;35.25;25.97;101797.81;5098392;28;20405;-69
2022/08/12 07:44:48;;;;;;;6.60;4.50;;;;;;;33.84;27.03;101803.91;5098983;28;20422;-69
2022/08/12 07:47:13;;;;;;;11.03;4.50;;;;;;;33.57;27.46;101804.88;5097285;28;20175;-69
2022/08/12 07:49:39;;;;;;;6.93;3.97;;;;;;;32.84;27.98;101801.81;5099801;28;20168;-70
2022/08/12 07:52:04;;;;;;;8.40;4.13;;;;;;;32.88;27.92;101800.63;5102576;28;20167;-71
2022/08/12 07:54:29;;;;;;;6.60;4.30;;;;;;;31.81;30.03;101806.69;5101837;28;20219;-71
2022/08/12 07:57:05;;;;;;;10.37;4.53;;;;;;;32.60;28.25;101803.41;5102266;28;20176;-71
2022/08/12 07:59:33;;;;;;;6.00;4.40;;;;;;;32.11;30.03;101805.69;5102063;28;20266;-71
2022/08/12 08:01:59;;;;;;;7.97;4.13;;;;;;;32.52;28.11;101802.09;5102153;28;20440;-70
2022/08/12 08:07:09;;;;;;;8.17;4.20;;;;;;;36.00;24.80;101800.09;5101844;28;20440;-71
2022/08/12 08:09:35;;;;;;;6.40;4.00;;;;;;;36.35;24.27;101804.47;5101973;28;20405;-71
2022/08/12 08:14:45;;;;;;;13.33;4.73;;;;;;;35.99;25.08;101801.94;5101813;28;20540;-70
2022/08/12 08:17:10;;;;;;;9.43;4.43;;;;;;;34.65;25.94;101807.84;5101886;28;20425;-70
2022/08/12 08:19:36;;;;;;;6.80;4.33;;;;;;;36.01;24.71;101807.25;5101588;28;20897;-70
2022/08/12 08:22:01;;;;;;;10.67;4.43;;;;;;;35.19;25.98;101806.44;5102142;28;20164;-69
2022/08/12 08:24:27;;;;;;;5.30;4.80;;;;;;;35.71;25.37;101806.00;5101461;28;20164;-70
2022/08/12 08:26:55;;;;;;;5.80;4.07;;;;;;;35.86;24.92;101802.09;5101637;28;20160;-69
2022/08/12 08:29:22;;;;;;;8.80;4.30;;;;;;;36.28;23.76;101806.81;5101983;28;20398;-68
2022/08/12 08:31:53;;;;;;;9.23;4.17;;;;;;;35.42;24.69;101809.22;5101469;28;20714;-68
2022/08/12 08:34:19;;;;;;;10.43;4.00;;;;;;;34.54;25.45;101810.53;5101266;28;20453;-68
2022/08/12 08:36:45;;;;;;;5.20;4.10;;;;;;;33.95;26.74;101813.94;5101973;28;20671;-68
2022/08/12 08:39:12;;;;;;;4.63;4.23;;;;;;;34.99;25.29;101815.25;5101432;28;20502;-70
2022/08/12 08:44:22;;;;;;;8.27;4.00;;;;;;;34.48;25.25;101810.97;5101222;28;20482;-69
2022/08/12 08:46:48;;;;;;;7.67;6.27;;;;;;;34.56;26.56;101798.59;5101220;28;20417;-68
2022/08/12 08:49:15;;;;;;;4.47;4.07;;;;;;;33.77;26.13;101805.31;5101298;28;20180;-70
2022/08/12 08:51:41;;;;;;;7.60;4.20;;;;;;;33.21;27.12;101807.34;5101185;28;20461;-70
2022/08/12 08:54:11;;;;;;;5.23;3.63;;;;;;;34.34;25.97;101809.31;5101071;28;20555;-69
2022/08/12 08:56:45;;;;;;;4.47;3.57;;;;;;;33.71;26.65;101806.63;5101060;28;20425;-68
2022/08/12 08:59:11;;;;;;;8.97;4.40;;;;;;;30.13;30.91;101824.66;5100953;28;20453;-69
2022/08/12 09:01:40;;;;;;;7.80;4.00;;;;;;;32.65;28.09;101812.06;5100483;28;20650;-68
2022/08/12 09:04:06;;;;;;;9.17;3.93;;;;;;;33.46;27.03;101807.50;5100556;28;20425;-68
2022/08/12 09:06:32;;;;;;;4.30;3.83;;;;;;;31.39;28.30;101816.47;5101150;28;20414;-69
2022/08/12 09:08:58;;;;;;;4.33;3.93;;;;;;;30.43;30.05;101813.97;5100724;28;20399;-68
2022/08/12 09:14:08;;;;;;;9.87;4.20;;;;;;;33.97;25.91;101802.03;5100668;28;20431;-70
2022/08/12 09:16:38;;;;;;;7.90;4.07;;;;;;;34.53;24.76;101803.38;5100854;28;20426;-73
2022/08/12 09:19:04;;;;;;;6.73;3.60;;;;;;;33.03;26.92;101811.31;5100526;28;20458;-71
2022/08/12 09:21:30;;;;;;;5.57;3.87;;;;;;;35.15;24.54;101802.22;5100642;28;20414;-69
2022/08/12 09:24:00;;;;;;;4.20;3.60;;;;;;;36.84;21.86;101786.75;5100782;28;20164;-69
2022/08/12 09:26:27;;;;;;;9.70;3.97;;;;;;;34.20;24.81;101797.63;5100584;28;20186;-70
2022/08/12 09:28:53;;;;;;;4.40;4.00;;;;;;;35.28;23.69;101787.72;5100569;28;20815;-69
2022/08/12 09:31:18;;;;;;;9.43;3.73;;;;;;;33.93;26.01;101792.41;5100931;28;20412;-70
2022/08/12 09:33:43;;;;;;;4.60;3.83;;;;;;;34.98;23.54;101791.84;5100402;28;20164;-70
2022/08/12 09:36:09;;;;;;;5.20;3.70;;;;;;;35.47;23.15;101787.16;5100295;28;20196;-69
2022/08/12 09:38:34;;;;;;;4.50;3.60;;;;;;;31.79;28.07;101792.44;5100395;28;20191;-70
2022/08/12 09:41:00;;;;;;;5.67;4.17;;;;;;;34.31;25.53;101787.88;5100247;28;20441;-70
2022/08/12 09:46:15;;;;;;;6.73;3.90;;;;;;;35.46;23.86;101790.84;5099545;28;20822;-69
2022/08/12 09:48:41;;;;;;;4.73;3.47;;;;;;;32.37;27.19;101792.34;5099973;28;20650;-68
2022/08/12 09:51:10;;;;;;;5.90;3.57;;;;;;;34.90;24.27;101785.19;5100005;28;20416;-70
2022/08/12 09:53:36;;;;;;;5.67;3.80;;;;;;;33.71;24.91;101791.25;5099775;28;20208;-70
2022/08/12 09:56:01;;;;;;;5.30;4.43;;;;;;;34.87;25.59;101785.44;5100119;28;20521;-70
2022/08/12 09:58:30;;;;;;;11.77;4.60;;;;;;;35.33;25.25;101774.69;5099860;28;20200;-68
2022/08/12 10:01:00;;;;;;;6.53;3.53;;;;;;;31.93;27.98;101778.06;5099784;28;20404;-67
2022/08/12 10:03:27;;;;;;;3.87;3.57;;;;;;;35.73;23.67;101766.91;5100012;28;20411;-69
2022/08/12 10:05:54;;;;;;;4.93;3.63;;;;;;;35.20;24.62;101764.78;5099724;28;20463;-70
2022/08/12 10:08:21;;;;;;;6.13;3.90;;;;;;;35.45;23.71;101762.84;5099618;28;20409;-69
2022/08/12 10:13:42;;;;;;;4.20;3.90;;;;;;;36.03;23.15;101753.69;5098696;28;20750;-68
2022/08/12 10:16:10;;;;;;;9.63;3.87;;;;;;;35.54;23.61;101756.69;5099614;28;20466;-68
2022/08/12 10:18:36;;;;;;;5.80;3.87;;;;;;;35.94;22.07;101755.34;5099456;28;20878;-69
2022/08/12 10:21:13;;;;;;;5.03;3.67;;;;;;;35.95;22.79;101748.91;5099482;28;20704;-70
2022/08/12 10:23:42;;;;;;;8.43;3.73;;;;;;;36.82;22.31;101739.81;5099317;28;20826;-71
2022/08/12 10:31:38;;;;;;;5.70;3.63;;;;;;;34.10;23.66;101747.91;5099608;28;20853;-71
2022/08/12 10:34:05;;;;;;;4.93;3.60;;;;;;;35.76;22.64;101735.94;5099048;28;20500;-69
2022/08/12 10:36:32;;;;;;;5.37;4.10;;;;;;;35.39;23.79;101734.41;5099042;28;20163;-69
2022/08/12 10:38:57;;;;;;;6.23;3.50;;;;;;;37.19;20.86;101720.28;5099575;28;20686;-70
2022/08/12 10:44:11;;;;;;;7.23;3.67;;;;;;;36.71;21.42;101713.56;5099034;28;20206;-69
2022/08/12 10:46:36;;;;;;;5.80;3.60;;;;;;;34.64;23.27;101727.59;5098921;28;20424;-69
2022/08/12 10:49:02;;;;;;;4.00;3.60;;;;;;;35.50;22.39;101722.69;5098920;28;20668;-69
2022/08/12 10:51:29;;;;;;;5.87;3.53;;;;;;;35.85;21.89;101702.69;5099214;28;20183;-70
2022/08/12 10:53:54;;;;;;;5.17;3.60;;;;;;;35.10;23.24;101712.31;5098478;28;20518;-71
2022/08/12 10:56:21;;;;;;;3.47;3.27;;;;;;;34.82;23.27;101706.38;5098841;28;20425;-69
2022/08/12 10:58:47;;;;;;;4.00;3.63;;;;;;;35.50;21.83;101700.97;5099321;28;20220;-70
2022/08/12 11:01:12;;;;;;;4.53;3.57;;;;;;;35.71;21.58;101709.22;5098716;28;20410;-70
2022/08/12 11:03:40;;;;;;;8.00;3.70;;;;;;;35.80;21.48;101702.16;5098598;28;20465;-72
2022/08/12 11:06:06;;;;;;;4.83;3.43;;;;;;;35.57;21.35;101701.34;5098890;28;20422;-70
2022/08/12 11:08:34;;;;;;;4.90;3.57;;;;;;;35.75;21.93;101693.56;5098465;28;20858;-69
2022/08/12 11:11:00;;;;;;;6.60;3.50;;;;;;;36.77;21.06;101690.41;5098492;28;20830;-70
2022/08/12 11:13:25;;;;;;;4.77;3.50;;;;;;;35.91;21.59;101693.16;5098765;28;20406;-70
2022/08/12 11:15:54;;;;;;;6.87;3.60;;;;;;;34.63;22.01;101690.66;5098380;28;20171;-71
2022/08/12 11:18:21;;;;;;;8.33;3.67;;;;;;;35.33;21.72;101688.81;5098294;28;20187;-71
2022/08/12 11:20:47;;;;;;;4.23;3.63;;;;;;;34.86;21.64;101691.59;5099004;28;20398;-73
2022/08/12 11:23:12;;;;;;;5.60;3.40;;;;;;;32.82;23.44;101698.41;5097972;28;20467;-71
2022/08/12 11:25:37;;;;;;;5.27;3.70;;;;;;;34.48;22.70;101687.31;5098211;28;20579;-72
2022/08/12 11:28:03;;;;;;;4.43;3.60;;;;;;;33.99;22.58;101694.59;5098897;28;20458;-71
2022/08/12 11:30:28;;;;;;;3.93;3.60;;;;;;;32.73;24.10;101689.13;5098312;28;20202;-70
2022/08/12 11:32:54;;;;;;;4.40;3.73;;;;;;;34.28;22.43;101685.25;5098088;28;20255;-70
2022/08/12 11:35:20;;;;;;;7.90;3.73;;;;;;;34.01;21.99;101683.66;5098446;28;20177;-69
2022/08/12 11:37:45;;;;;;;5.57;3.53;;;;;;;34.02;22.28;101690.78;5098080;28;20176;-69
2022/08/12 11:40:11;;;;;;;4.00;3.60;;;;;;;32.93;23.63;101683.31;5098165;28;20860;-69
2022/08/12 11:42:36;;;;;;;8.87;4.23;;;;;;;33.55;23.49;101680.63;5098460;28;20205;-70
2022/08/12 11:45:03;;;;;;;6.53;3.73;;;;;;;35.44;20.80;101671.69;5097849;28;20183;-71
2022/08/12 11:47:28;;;;;;;4.10;3.80;;;;;;;34.69;21.89;101676.63;5097342;28;20172;-69
2022/08/12 11:49:54;;;;;;;6.23;3.57;;;;;;;34.14;22.24;101670.91;5089030;28;20403;-70
2022/08/12 11:52:19;;;;;;;5.37;4.87;;;;;;;35.29;21.60;101671.03;5083852;28;20180;-70
2022/08/12 11:54:45;;;;;;;4.10;3.63;;;;;;;35.05;21.59;101668.47;5097583;28;20247;-68
2022/08/12 11:57:10;;;;;;;6.10;3.90;;;;;;;32.37;24.57;101679.00;5087276;28;20184;-68
2022/08/12 11:59:35;;;;;;;5.40;3.53;;;;;;;33.86;22.36;101675.69;5077701;28;20582;-69
2022/08/12 12:02:01;;;;;;;6.00;3.93;;;;;;;34.59;21.14;101667.50;5087594;28;20210;-71
2022/08/12 12:04:26;;;;;;;8.60;3.67;;;;;;;34.82;20.97;101667.59;5098062;28;20164;-71
2022/08/12 12:06:52;;;;;;;3.93;3.50;;;;;;;33.78;21.67;101664.59;5097983;28;20216;-71
2022/08/12 12:09:18;;;;;;;7.00;3.80;;;;;;;33.86;21.91;101662.16;5097615;28;20176;-71
2022/08/12 12:11:43;;;;;;;6.90;3.60;;;;;;;33.43;21.88;101659.06;5098134;28;20410;-71
2022/08/12 12:14:09;;;;;;;6.37;3.50;;;;;;;34.36;21.57;101650.34;5097843;28;20176;-71
2022/08/12 12:16:36;;;;;;;4.20;3.80;;;;;;;33.58;21.15;101650.69;5097763;28;20172;-71
2022/08/12 12:19:04;;;;;;;6.20;3.57;;;;;;;32.17;23.30;101667.72;5098013;28;20188;-71
2022/08/12 12:21:29;;;;;;;5.00;3.80;;;;;;;33.20;22.31;101651.59;5097502;28;20684;-71
2022/08/12 12:23:54;;;;;;;4.43;3.67;;;;;;;33.42;22.28;101644.66;5077397;28;20490;-71
2022/08/12 12:26:20;;;;;;;3.57;3.27;;;;;;;34.02;21.94;101652.91;5077885;28;20165;-71
2022/08/12 12:28:45;;;;;;;4.33;3.60;;;;;;;33.84;21.55;101660.56;5077398;28;20204;-71
2022/08/12 12:31:11;;;;;;;5.23;3.67;;;;;;;33.80;21.19;101650.94;5077459;28;20255;-71
2022/08/12 12:33:36;;;;;;;7.90;4.77;;;;;;;32.80;21.72;101640.97;5077653;28;20169;-70
2022/08/12 12:36:02;;;;;;;6.00;3.87;;;;;;;32.78;22.69;101650.13;5079336;28;20173;-70
2022/08/12 12:38:27;;;;;;;4.20;3.80;;;;;;;32.51;22.14;101642.97;5080906;28;20537;-69
2022/08/12 12:40:53;;;;;;;4.23;3.83;;;;;;;32.93;22.08;101632.84;5081524;28;20180;-70
2022/08/12 12:43:19;;;;;;;3.77;3.33;;;;;;;32.40;21.91;101633.75;5080917;28;20173;-70
2022/08/12 12:45:44;;;;;;;4.60;3.80;;;;;;;32.47;21.41;101636.91;5081181;28;20169;-70
2022/08/12 12:48:11;;;;;;;4.80;3.30;;;;;;;32.34;22.03;101633.31;5081220;28;20823;-69
2022/08/12 12:50:42;;;;;;;4.80;3.80;;;;;;;34.12;20.53;101629.56;5080720;28;20198;-69
2022/08/12 12:53:08;;;;;;;4.50;3.70;;;;;;;32.24;22.29;101625.00;5080677;28;20423;-71
2022/08/12 12:55:34;;;;;;;3.90;3.60;;;;;;;33.02;21.76;101628.63;5079686;28;20729;-69
2022/08/12 12:58:03;;;;;;;4.07;3.73;;;;;;;32.07;23.02;101636.91;5100692;28;20528;-69
2022/08/12 13:00:30;;;;;;;4.90;3.60;;;;;;;32.38;23.09;101632.13;5101430;28;20671;-69
2022/08/12 13:02:55;;;;;;;4.93;3.60;;;;;;;32.87;22.20;101626.03;5100631;28;20429;-70
2022/08/12 13:05:24;;;;;;;4.40;4.00;;;;;;;32.62;22.64;101634.09;5100875;28;20497;-70
2022/08/12 13:07:50;;;;;;;7.03;4.07;;;;;;;32.36;22.66;101623.28;5101069;28;20172;-68
2022/08/12 13:10:16;;;;;;;4.13;3.73;;;;;;;33.12;22.27;101618.00;5100555;28;20422;-69
2022/08/12 13:12:41;;;;;;;5.33;3.83;;;;;;;33.02;22.13;101620.53;5100645;28;20835;-73
2022/08/12 13:15:14;;;;;;;4.50;3.73;;;;;;;32.37;22.71;101616.94;5101088;28;20164;-69
2022/08/12 13:17:40;;;;;;;3.70;3.40;;;;;;;32.61;22.65;101618.88;5100790;28;20195;-70
2022/08/12 13:20:06;;;;;;;4.80;3.70;;;;;;;32.84;22.54;101617.28;5100528;28;20477;-69
2022/08/12 13:22:32;;;;;;;4.10;3.70;;;;;;;32.79;22.91;101624.88;5100753;28;20811;-70